Time;durP1;ratioP1;P1;durP2;ratioP2;P2;SDS_P1;SDS_P2;PMS_P1;PMS_P2;Temp;Humidity;BMP_temperature;BMP_pressure;BME280_temperature;BME280_humidity;BME280_pressure;Samples;Min_cycle;Max_cycle;Signal;HPM_P1;HPM_P2
2023/08/07 00:00:46;;;;;;;3.05;1.20;;;14.90;99.90;;;;;;4973356;28;20022;-87
2023/08/07 00:03:18;;;;;;;2.80;1.10;;;14.90;99.90;;;;;;4949472;28;20018;-85
2023/08/07 00:05:48;;;;;;;2.63;0.90;;;14.90;99.90;;;;;;4944233;28;20396;-81
2023/08/07 00:08:14;;;;;;;2.97;1.08;;;14.90;99.90;;;;;;4944441;28;20447;-86
2023/08/07 00:10:40;;;;;;;4.20;1.47;;;14.90;99.90;;;;;;4951686;28;20433;-86
2023/08/07 00:13:06;;;;;;;3.83;1.30;;;14.80;99.90;;;;;;4976809;28;20018;-84
2023/08/07 00:15:33;;;;;;;3.47;1.20;;;;;;;;;;4930902;28;20034;-86
2023/08/07 00:17:59;;;;;;;3.85;1.20;;;14.80;99.90;;;;;;4948034;28;20019;-85
2023/08/07 00:20:25;;;;;;;3.30;1.20;;;14.80;99.90;;;;;;4949909;28;20048;-84
2023/08/07 00:22:50;;;;;;;2.75;1.25;;;14.80;99.90;;;;;;4962711;28;20143;-83
2023/08/07 00:25:16;;;;;;;2.93;1.50;;;14.80;99.90;;;;;;4929620;28;20038;-82
2023/08/07 00:27:42;;;;;;;3.17;1.17;;;14.80;99.90;;;;;;4945771;28;20014;-88
2023/08/07 00:30:08;;;;;;;3.25;1.38;;;14.70;99.90;;;;;;4934689;28;20362;-85
2023/08/07 00:32:34;;;;;;;2.50;1.13;;;14.70;99.90;;;;;;4958005;28;20029;-86
2023/08/07 00:35:00;;;;;;;3.35;1.15;;;14.70;99.90;;;;;;4959595;28;21295;-83
2023/08/07 00:37:25;;;;;;;2.63;1.07;;;14.70;99.90;;;;;;4940041;28;20026;-87
2023/08/07 00:39:51;;;;;;;2.28;1.00;;;14.60;99.90;;;;;;4977501;28;20108;-86
2023/08/07 00:42:17;;;;;;;2.67;1.00;;;14.60;99.90;;;;;;4946478;28;20080;-84
2023/08/07 00:44:42;;;;;;;3.10;1.10;;;14.70;99.90;;;;;;4958069;28;20059;-88
2023/08/07 00:47:08;;;;;;;2.90;1.20;;;14.60;99.90;;;;;;4962487;28;20026;-86
2023/08/07 00:49:35;;;;;;;1.92;0.90;;;14.60;99.90;;;;;;4978735;28;20519;-87
2023/08/07 00:52:00;;;;;;;2.20;1.00;;;14.60;99.90;;;;;;4956133;28;20045;-82
2023/08/07 00:54:28;;;;;;;2.43;1.17;;;14.60;99.90;;;;;;4966728;28;20010;-84
2023/08/07 00:56:53;;;;;;;2.47;1.00;;;14.20;99.90;;;;;;4931896;28;20695;-86
2023/08/07 00:59:19;;;;;;;2.78;1.27;;;14.60;99.90;;;;;;4969709;28;20029;-86
2023/08/07 01:01:49;;;;;;;2.63;1.10;;;14.60;99.90;;;;;;4937100;28;20053;-85
2023/08/07 01:04:15;;;;;;;2.58;1.20;;;14.60;99.90;;;;;;4985439;28;20482;-85
2023/08/07 01:06:41;;;;;;;3.30;1.00;;;14.60;99.90;;;;;;4955312;28;20078;-85
2023/08/07 01:09:06;;;;;;;3.75;1.10;;;14.60;99.90;;;;;;4957560;28;20052;-87
2023/08/07 01:12:07;;;;;;;3.23;1.30;;;14.60;99.90;;;;;;4946553;28;20018;-88
2023/08/07 01:14:51;;;;;;;1.98;1.20;;;14.60;99.90;;;;;;4965095;28;20627;-88
2023/08/07 01:17:20;;;;;;;2.50;1.00;;;14.60;99.90;;;;;;4915512;28;20014;-86
2023/08/07 01:19:47;;;;;;;3.27;1.47;;;14.60;99.90;;;;;;4951161;28;20037;-90
2023/08/07 01:22:18;;;;;;;2.65;1.30;;;14.60;99.90;;;;;;4949468;28;20037;-87
2023/08/07 01:24:46;;;;;;;3.03;1.20;;;14.60;99.90;;;;;;4940680;28;20381;-84
2023/08/07 01:27:21;;;;;;;1.85;1.15;;;14.60;99.90;;;;;;4965913;28;20030;-87
2023/08/07 01:29:56;;;;;;;2.42;1.10;;;14.60;99.90;;;;;;4964934;28;20117;-87
2023/08/07 01:32:38;;;;;;;1.70;0.97;;;14.30;99.90;;;;;;4943823;28;20152;-85
2023/08/07 01:35:06;;;;;;;2.85;1.20;;;14.50;99.90;;;;;;4966764;28;20025;-86
2023/08/07 01:37:38;;;;;;;2.05;1.00;;;14.50;99.90;;;;;;4963468;28;20324;-88
2023/08/07 01:40:05;;;;;;;2.55;1.00;;;14.50;99.90;;;;;;4972327;28;20026;-87
2023/08/07 01:42:32;;;;;;;2.03;1.08;;;14.50;99.90;;;;;;4963995;28;20282;-86
2023/08/07 01:44:58;;;;;;;1.47;0.90;;;14.40;99.90;;;;;;4953841;28;20022;-87
2023/08/07 01:47:24;;;;;;;2.55;1.08;;;14.40;99.90;;;;;;4986595;28;20037;-89
2023/08/07 01:49:50;;;;;;;2.60;1.15;;;15.00;99.90;;;;;;4945372;28;20677;-86
2023/08/07 01:52:16;;;;;;;1.73;1.00;;;14.40;99.90;;;;;;4961236;28;20196;-84
2023/08/07 01:54:42;;;;;;;3.10;1.10;;;14.20;99.90;;;;;;4934474;28;20270;-86
2023/08/07 01:57:08;;;;;;;3.83;1.30;;;;;;;;;;4957264;28;20225;-87
2023/08/07 01:59:33;;;;;;;1.80;1.00;;;14.40;99.90;;;;;;4948173;28;20034;-86
2023/08/07 02:01:59;;;;;;;1.88;1.25;;;14.40;99.90;;;;;;4960745;28;20410;-88
2023/08/07 02:04:25;;;;;;;2.33;1.10;;;14.40;99.90;;;;;;4951864;28;20042;-84
2023/08/07 02:06:50;;;;;;;3.83;1.20;;;14.40;99.90;;;;;;4949129;28;20531;-87
2023/08/07 02:09:16;;;;;;;2.63;1.00;;;14.40;99.90;;;;;;4950884;28;20033;-87
2023/08/07 02:11:42;;;;;;;3.42;1.20;;;14.40;99.90;;;;;;4957321;28;20026;-88
2023/08/07 02:14:08;;;;;;;1.83;1.10;;;;;;;;;;4926501;28;20034;-87
2023/08/07 02:16:34;;;;;;;1.50;0.90;;;14.40;99.90;;;;;;4963106;28;20033;-91
2023/08/07 02:19:00;;;;;;;2.03;0.88;;;13.50;99.90;;;;;;4928115;28;20633;-85
2023/08/07 02:21:25;;;;;;;2.47;1.00;;;14.40;99.90;;;;;;4960821;28;20034;-88
2023/08/07 02:23:51;;;;;;;2.28;1.15;;;;;;;;;;4962475;28;20049;-86
2023/08/07 02:26:17;;;;;;;3.08;1.00;;;14.40;99.90;;;;;;4955320;28;20049;-86
2023/08/07 02:28:43;;;;;;;2.17;0.97;;;14.30;99.90;;;;;;4962483;28;20014;-86
2023/08/07 02:31:09;;;;;;;2.72;0.90;;;14.30;99.90;;;;;;4945282;28;20283;-88
2023/08/07 02:33:34;;;;;;;1.70;1.00;;;14.30;99.90;;;;;;4948095;28;20507;-83
2023/08/07 02:36:00;;;;;;;1.77;1.00;;;14.30;99.90;;;;;;4932251;28;20227;-86
2023/08/07 02:38:26;;;;;;;1.37;0.90;;;14.20;99.90;;;;;;4949668;28;20027;-84
2023/08/07 02:40:51;;;;;;;2.80;1.40;;;14.20;99.90;;;;;;4941720;28;20034;-88
2023/08/07 02:43:17;;;;;;;1.48;0.88;;;14.20;99.90;;;;;;4952194;28;20092;-86
2023/08/07 02:45:43;;;;;;;2.27;0.90;;;15.30;99.90;;;;;;4929104;28;21897;-86
2023/08/07 02:48:09;;;;;;;2.00;0.98;;;14.10;99.90;;;;;;4966423;28;20660;-89
2023/08/07 02:50:35;;;;;;;1.92;1.00;;;14.10;99.90;;;;;;4942623;28;20030;-88
2023/08/07 02:53:02;;;;;;;1.37;0.87;;;14.10;99.90;;;;;;4960965;28;20651;-87
2023/08/07 02:55:28;;;;;;;2.95;1.05;;;14.10;99.90;;;;;;4942211;28;20089;-87
2023/08/07 02:57:53;;;;;;;1.70;0.90;;;14.00;99.90;;;;;;4962787;28;20038;-86
2023/08/07 03:00:19;;;;;;;2.27;0.90;;;13.50;99.90;;;;;;4952032;28;20023;-85
2023/08/07 03:02:45;;;;;;;2.13;0.90;;;14.00;99.90;;;;;;4968606;28;20030;-88
2023/08/07 03:05:11;;;;;;;3.13;1.40;;;13.50;99.90;;;;;;4951060;28;20288;-86
2023/08/07 03:07:37;;;;;;;3.10;1.10;;;14.00;99.90;;;;;;4950248;28;20105;-86
2023/08/07 03:10:04;;;;;;;1.27;0.80;;;14.00;99.90;;;;;;4946724;28;20073;-87
2023/08/07 03:12:29;;;;;;;2.53;0.90;;;14.00;99.90;;;;;;4946290;28;20066;-86
2023/08/07 03:14:55;;;;;;;3.45;1.02;;;13.90;99.90;;;;;;4967099;28;20116;-86
2023/08/07 03:17:21;;;;;;;1.40;0.85;;;;;;;;;;4935469;28;20034;-86
2023/08/07 03:19:47;;;;;;;2.33;1.10;;;13.90;99.90;;;;;;4950891;28;20037;-88
2023/08/07 03:22:13;;;;;;;2.00;0.93;;;13.90;99.90;;;;;;4952491;28;20034;-88
2023/08/07 03:24:39;;;;;;;1.53;1.00;;;13.90;99.90;;;;;;4950629;28;20112;-88
2023/08/07 03:27:04;;;;;;;2.30;1.00;;;13.90;99.90;;;;;;4953679;28;20356;-89
2023/08/07 03:29:30;;;;;;;2.55;0.90;;;13.90;99.90;;;;;;4964389;28;20101;-86
2023/08/07 03:31:56;;;;;;;1.77;0.90;;;13.90;99.90;;;;;;4925265;28;20239;-87
2023/08/07 03:34:22;;;;;;;1.83;1.20;;;13.90;99.90;;;;;;4949340;28;20133;-89
2023/08/07 03:36:47;;;;;;;1.30;0.83;;;14.00;99.90;;;;;;4950323;28;20022;-87
2023/08/07 03:39:13;;;;;;;1.77;0.93;;;13.90;99.90;;;;;;4949655;28;20044;-86
2023/08/07 03:41:39;;;;;;;3.03;1.20;;;14.10;99.90;;;;;;4957375;28;20033;-87
2023/08/07 03:44:06;;;;;;;2.97;1.30;;;14.10;99.90;;;;;;4964559;28;20026;-87
2023/08/07 03:46:32;;;;;;;2.78;1.00;;;14.20;99.90;;;;;;4965443;28;20026;-86
2023/08/07 03:48:58;;;;;;;1.77;0.98;;;14.30;99.90;;;;;;4944143;28;20401;-85
2023/08/07 03:51:24;;;;;;;2.77;0.90;;;15.00;99.90;;;;;;4931202;28;21096;-83
2023/08/07 03:53:49;;;;;;;1.92;1.00;;;14.30;99.90;;;;;;4946908;28;20024;-86
2023/08/07 03:56:15;;;;;;;2.60;0.90;;;14.40;99.90;;;;;;4938708;28;20030;-86
2023/08/07 03:58:41;;;;;;;1.43;0.90;;;14.40;99.90;;;;;;4964157;28;20026;-88
2023/08/07 04:01:08;;;;;;;2.10;1.10;;;14.40;99.90;;;;;;4964025;28;20023;-86
2023/08/07 04:03:33;;;;;;;2.58;0.90;;;14.50;99.90;;;;;;4931320;28;20253;-84
2023/08/07 04:06:01;;;;;;;2.57;1.03;;;14.50;99.90;;;;;;4964079;28;20147;-86
2023/08/07 04:08:27;;;;;;;2.63;0.98;;;14.50;99.90;;;;;;4934142;28;20339;-87
2023/08/07 04:11:04;;;;;;;1.85;0.90;;;14.50;99.90;;;;;;4943594;28;20401;-84
2023/08/07 04:13:30;;;;;;;1.90;1.00;;;14.60;99.90;;;;;;4971493;28;20305;-86
2023/08/07 04:15:56;;;;;;;1.65;0.80;;;14.60;99.90;;;;;;4948940;28;20085;-88
2023/08/07 04:18:22;;;;;;;2.70;0.80;;;14.50;99.90;;;;;;4942349;28;21372;-86
2023/08/07 04:20:53;;;;;;;1.80;0.90;;;14.60;99.90;;;;;;4951867;28;20022;-87
2023/08/07 04:23:21;;;;;;;1.73;0.80;;;14.60;99.90;;;;;;4944985;28;20030;-89
2023/08/07 04:25:51;;;;;;;2.50;1.27;;;14.60;99.90;;;;;;4964429;28;20424;-86
2023/08/07 04:28:16;;;;;;;2.10;1.00;;;14.60;99.90;;;;;;4960552;28;20053;-86
2023/08/07 04:30:43;;;;;;;2.28;0.80;;;14.60;99.90;;;;;;4952846;28;20489;-88
2023/08/07 04:33:09;;;;;;;1.55;1.00;;;14.50;99.90;;;;;;4953979;28;20671;-88
2023/08/07 04:35:35;;;;;;;1.67;1.20;;;14.60;99.90;;;;;;4916321;28;20061;-87
2023/08/07 04:38:02;;;;;;;2.15;1.00;;;14.60;99.90;;;;;;4944137;28;20564;-86
2023/08/07 04:40:28;;;;;;;2.90;0.90;;;14.70;99.90;;;;;;4933363;28;20214;-86
2023/08/07 04:42:54;;;;;;;2.50;1.10;;;14.70;99.90;;;;;;4941360;28;20025;-85
2023/08/07 04:45:20;;;;;;;1.83;0.90;;;14.70;99.90;;;;;;4947044;28;20034;-84
2023/08/07 04:47:46;;;;;;;3.38;1.15;;;14.70;99.90;;;;;;4943743;28;20045;-87
2023/08/07 04:50:12;;;;;;;2.67;0.90;;;14.40;99.90;;;;;;4942006;28;20030;-85
2023/08/07 04:52:37;;;;;;;2.63;1.10;;;14.70;99.90;;;;;;4957225;28;20141;-87
2023/08/07 04:55:04;;;;;;;2.47;1.17;;;14.70;99.90;;;;;;4948995;28;20022;-85
2023/08/07 04:57:30;;;;;;;2.77;1.10;;;14.70;99.90;;;;;;4960456;28;20555;-88
2023/08/07 04:59:59;;;;;;;1.50;0.93;;;14.70;99.90;;;;;;4954526;28;20030;-84
2023/08/07 05:02:25;;;;;;;2.33;1.10;;;;;;;;;;4928375;28;20034;-85
2023/08/07 05:04:51;;;;;;;1.80;1.10;;;14.70;99.90;;;;;;4958387;28;20042;-88
2023/08/07 05:07:17;;;;;;;2.47;0.95;;;;;;;;;;4923363;28;20031;-87
2023/08/07 05:09:43;;;;;;;1.70;1.08;;;14.60;99.90;;;;;;4941505;28;20114;-87
2023/08/07 05:12:08;;;;;;;1.93;0.90;;;14.60;99.90;;;;;;4948683;28;20048;-85
2023/08/07 05:14:34;;;;;;;2.38;1.25;;;15.30;99.90;;;;;;4962019;28;20035;-83
2023/08/07 05:17:00;;;;;;;1.40;0.90;;;14.60;99.90;;;;;;4966733;28;20042;-85
2023/08/07 05:19:26;;;;;;;2.30;1.00;;;;;;;;;;4941111;28;20022;-86
2023/08/07 05:21:52;;;;;;;1.52;0.90;;;14.50;99.90;;;;;;4940338;28;20117;-82
2023/08/07 05:24:18;;;;;;;2.57;1.00;;;14.50;99.90;;;;;;4946750;28;20026;-87
2023/08/07 05:26:44;;;;;;;3.22;1.35;;;14.40;99.90;;;;;;4963034;28;20248;-86
2023/08/07 05:29:09;;;;;;;1.90;1.13;;;14.50;99.90;;;;;;4962815;28;20026;-86
2023/08/07 05:31:36;;;;;;;1.63;0.90;;;14.50;99.90;;;;;;4954103;28;20574;-84
2023/08/07 05:34:02;;;;;;;2.45;1.10;;;14.50;99.90;;;;;;4957769;28;20109;-89
2023/08/07 05:36:28;;;;;;;1.50;0.90;;;14.50;99.90;;;;;;4981558;28;20168;-87
2023/08/07 05:38:54;;;;;;;1.75;1.02;;;14.50;99.90;;;;;;4944659;28;20035;-86
2023/08/07 05:41:20;;;;;;;1.93;1.07;;;14.50;99.90;;;;;;4950784;28;20769;-87
2023/08/07 05:43:46;;;;;;;2.95;1.10;;;14.50;99.90;;;;;;4985982;28;20147;-85
2023/08/07 05:46:12;;;;;;;2.30;1.03;;;14.50;99.90;;;;;;4944866;28;20097;-86
2023/08/07 05:48:37;;;;;;;2.20;1.20;;;14.60;99.90;;;;;;4942447;28;20311;-86
2023/08/07 05:51:03;;;;;;;2.37;0.90;;;14.60;99.90;;;;;;4950963;28;20511;-87
2023/08/07 05:53:29;;;;;;;1.95;1.00;;;14.60;99.90;;;;;;4941133;28;20641;-84
2023/08/07 05:55:55;;;;;;;2.10;1.00;;;14.60;99.90;;;;;;4967915;28;20034;-87
2023/08/07 05:58:21;;;;;;;1.90;0.98;;;14.70;99.90;;;;;;4947805;28;20031;-85
2023/08/07 06:00:47;;;;;;;1.93;0.90;;;14.70;99.90;;;;;;4951950;28;20022;-83
2023/08/07 06:03:13;;;;;;;2.95;1.15;;;14.60;99.90;;;;;;4935846;28;20026;-85
2023/08/07 06:05:39;;;;;;;2.07;1.03;;;14.70;99.90;;;;;;4939626;28;20038;-86
2023/08/07 06:08:05;;;;;;;1.60;1.00;;;14.80;99.90;;;;;;4949153;28;20057;-87
2023/08/07 06:10:30;;;;;;;1.70;0.90;;;14.80;99.90;;;;;;4950199;28;20041;-85
2023/08/07 06:12:56;;;;;;;2.13;1.17;;;14.80;99.90;;;;;;4946035;28;20109;-84
2023/08/07 06:15:22;;;;;;;2.60;1.02;;;14.90;99.90;;;;;;4943119;28;20069;-85
2023/08/07 06:17:47;;;;;;;2.50;1.13;;;14.90;99.90;;;;;;4940960;28;20023;-88
2023/08/07 06:20:15;;;;;;;1.77;1.00;;;15.00;99.90;;;;;;4961338;28;20042;-87
2023/08/07 06:22:41;;;;;;;2.58;1.10;;;14.00;99.90;;;;;;4944002;28;20409;-87
2023/08/07 06:25:08;;;;;;;3.80;1.00;;;15.10;99.90;;;;;;4962465;28;20084;-85
2023/08/07 06:27:34;;;;;;;2.00;1.10;;;15.80;99.90;;;;;;4930186;28;20719;-85
2023/08/07 06:29:59;;;;;;;2.03;1.20;;;15.20;99.90;;;;;;4961985;28;20105;-83
2023/08/07 06:32:26;;;;;;;2.37;1.30;;;15.20;99.90;;;;;;4946247;28;20076;-86
2023/08/07 06:34:52;;;;;;;3.20;1.00;;;15.30;99.90;;;;;;4954844;28;20041;-84
2023/08/07 06:37:18;;;;;;;2.78;1.00;;;15.30;99.90;;;;;;4949200;28;20380;-84
2023/08/07 06:39:46;;;;;;;2.10;1.00;;;14.50;99.90;;;;;;4926453;28;20672;-86
2023/08/07 06:42:12;;;;;;;1.88;0.90;;;;;;;;;;4977884;28;20437;-85
2023/08/07 06:44:38;;;;;;;2.10;1.05;;;15.50;99.90;;;;;;4948219;28;20415;-89
2023/08/07 06:47:04;;;;;;;2.28;1.20;;;15.60;99.90;;;;;;4951080;28;20206;-90
2023/08/07 06:49:31;;;;;;;3.03;1.20;;;15.70;99.90;;;;;;4932280;28;20351;-86
2023/08/07 06:51:58;;;;;;;2.30;1.00;;;15.70;99.90;;;;;;4966169;28;20023;-85
2023/08/07 06:54:23;;;;;;;1.98;1.10;;;15.70;99.90;;;;;;4935384;28;20477;-87
2023/08/07 06:56:49;;;;;;;2.38;1.17;;;15.90;99.90;;;;;;4946710;28;20019;-86
2023/08/07 06:59:15;;;;;;;2.20;1.30;;;;;;;;;;4955544;28;20038;-85
2023/08/07 07:01:41;;;;;;;4.30;1.77;;;16.00;99.90;;;;;;4956066;28;20034;-84
2023/08/07 07:04:07;;;;;;;2.75;1.10;;;16.00;99.90;;;;;;4938294;28;20426;-85
2023/08/07 07:06:34;;;;;;;1.53;1.10;;;16.10;99.90;;;;;;4944982;28;20045;-86
2023/08/07 07:09:00;;;;;;;2.30;1.10;;;16.20;99.90;;;;;;4950732;28;20042;-83
2023/08/07 07:11:25;;;;;;;4.43;1.42;;;16.30;99.90;;;;;;4939304;28;20379;-85
2023/08/07 07:13:52;;;;;;;2.73;1.07;;;16.40;99.90;;;;;;4949196;28;20424;-87
2023/08/07 07:16:18;;;;;;;1.67;1.10;;;16.50;99.90;;;;;;4956137;28;20034;-85
2023/08/07 07:18:44;;;;;;;3.95;1.20;;;16.60;99.90;;;;;;4942094;28;20211;-84
2023/08/07 07:21:10;;;;;;;2.93;1.30;;;16.70;99.90;;;;;;4941697;28;20136;-86
2023/08/07 07:23:36;;;;;;;3.03;1.20;;;16.70;99.90;;;;;;4955022;28;20131;-88
2023/08/07 07:26:01;;;;;;;2.97;1.10;;;16.80;99.90;;;;;;4949745;28;20405;-83
2023/08/07 07:28:27;;;;;;;3.45;1.25;;;16.30;99.90;;;;;;4955153;28;20165;-84
2023/08/07 07:30:53;;;;;;;1.67;1.02;;;17.00;99.90;;;;;;4927716;28;20056;-86
2023/08/07 07:33:19;;;;;;;3.17;1.10;;;17.10;99.90;;;;;;4968623;28;20127;-85
2023/08/07 07:35:45;;;;;;;2.35;1.15;;;17.20;99.90;;;;;;4941436;28;20018;-86
2023/08/07 07:38:11;;;;;;;4.07;1.30;;;17.20;99.90;;;;;;4937993;28;20053;-91
2023/08/07 07:40:38;;;;;;;2.30;1.15;;;17.30;99.90;;;;;;4951624;28;20406;-87
2023/08/07 07:43:03;;;;;;;3.78;1.20;;;17.40;99.90;;;;;;4979291;28;20434;-87
2023/08/07 07:45:29;;;;;;;3.57;1.10;;;17.50;99.90;;;;;;4936318;28;20042;-87
2023/08/07 07:47:55;;;;;;;3.47;1.10;;;17.50;99.90;;;;;;4959420;28;20289;-87
2023/08/07 07:50:21;;;;;;;3.17;1.30;;;17.70;99.90;;;;;;4935159;28;20177;-85
2023/08/07 07:52:47;;;;;;;2.87;1.27;;;17.70;99.90;;;;;;4965642;28;20054;-86
2023/08/07 07:55:13;;;;;;;2.10;1.17;;;18.80;99.90;;;;;;4941823;28;20769;-86
2023/08/07 07:57:40;;;;;;;2.03;1.20;;;17.90;99.90;;;;;;4947526;28;20493;-85
2023/08/07 08:00:10;;;;;;;2.55;1.30;;;18.10;99.90;;;;;;4946131;28;20062;-87
2023/08/07 08:02:36;;;;;;;2.30;1.03;;;18.20;99.90;;;;;;4969225;28;20131;-83
2023/08/07 08:05:02;;;;;;;2.00;1.20;;;18.70;99.90;;;;;;4953746;28;20184;-88
2023/08/07 08:07:28;;;;;;;1.52;1.10;;;18.40;99.90;;;;;;4968676;28;20043;-87
2023/08/07 08:09:54;;;;;;;2.83;1.20;;;18.50;99.90;;;;;;4959019;28;20041;-85
2023/08/07 08:12:21;;;;;;;2.20;1.13;;;18.60;99.90;;;;;;4928495;28;20113;-88
2023/08/07 08:14:47;;;;;;;1.65;1.05;;;18.70;99.90;;;;;;4965359;28;20061;-84
2023/08/07 08:17:13;;;;;;;3.57;1.20;;;18.80;99.90;;;;;;4929078;28;20465;-84
2023/08/07 08:19:39;;;;;;;3.53;1.30;;;18.90;99.90;;;;;;4983464;28;20034;-87
2023/08/07 08:22:05;;;;;;;2.22;1.10;;;19.00;99.90;;;;;;4947511;28;20492;-88
2023/08/07 08:24:31;;;;;;;2.23;1.10;;;19.20;99.90;;;;;;4949689;28;20484;-88
2023/08/07 08:26:57;;;;;;;2.58;1.17;;;19.50;99.90;;;;;;4942412;28;20112;-86
2023/08/07 08:29:23;;;;;;;1.65;1.10;;;19.90;99.90;;;;;;4951404;28;20196;-88
2023/08/07 08:31:49;;;;;;;1.93;1.13;;;20.20;99.90;;;;;;4950946;28;20548;-86
2023/08/07 08:34:15;;;;;;;2.60;1.00;;;20.50;99.90;;;;;;4958743;28;20034;-86
2023/08/07 08:36:40;;;;;;;4.40;1.30;;;20.70;99.90;;;;;;4963679;28;20018;-86
2023/08/07 08:39:06;;;;;;;1.97;1.10;;;21.00;99.90;;;;;;4961305;28;20037;-86
2023/08/07 08:41:32;;;;;;;2.95;1.25;;;21.00;99.90;;;;;;4942069;28;20117;-86
2023/08/07 08:44:01;;;;;;;3.00;1.30;;;21.10;99.90;;;;;;4928500;28;20452;-86
2023/08/07 08:46:29;;;;;;;4.20;1.08;;;21.40;99.90;;;;;;4930163;28;20148;-86
2023/08/07 08:48:58;;;;;;;2.20;1.10;;;21.70;99.90;;;;;;4940392;28;20038;-86
2023/08/07 08:51:25;;;;;;;2.22;1.20;;;22.00;99.90;;;;;;4937517;28;20232;-87
2023/08/07 08:53:56;;;;;;;3.03;1.30;;;22.30;99.90;;;;;;4950285;28;20030;-87
2023/08/07 08:56:23;;;;;;;1.53;1.00;;;22.50;99.90;;;;;;4940524;28;20160;-86
2023/08/07 08:58:52;;;;;;;2.00;1.10;;;22.60;99.90;;;;;;4933265;28;20106;-84
2023/08/07 09:01:18;;;;;;;2.85;1.10;;;19.60;99.90;;;;;;4929838;28;20045;-86
2023/08/07 09:03:47;;;;;;;1.42;1.05;;;22.50;99.90;;;;;;4958185;28;20029;-87
2023/08/07 09:06:14;;;;;;;2.22;1.35;;;22.60;99.90;;;;;;4963060;28;20026;-84
2023/08/07 09:08:43;;;;;;;2.60;1.20;;;22.70;99.90;;;;;;4949853;28;20753;-85
2023/08/07 09:11:11;;;;;;;2.50;1.30;;;22.90;99.90;;;;;;4969818;28;20528;-88
2023/08/07 09:13:38;;;;;;;1.63;1.15;;;23.30;99.90;;;;;;4946394;28;20022;-86
2023/08/07 09:16:07;;;;;;;1.77;1.30;;;23.70;99.90;;;;;;4932825;28;20035;-84
2023/08/07 09:18:33;;;;;;;1.88;1.30;;;24.10;99.90;;;;;;4949806;28;20031;-87
2023/08/07 09:21:00;;;;;;;3.20;1.40;;;24.40;99.90;;;;;;4975590;28;20366;-86
2023/08/07 09:23:26;;;;;;;2.33;1.17;;;24.60;99.90;;;;;;4963704;28;20029;-83
2023/08/07 09:26:04;;;;;;;2.38;1.50;;;24.70;99.90;;;;;;4933680;28;20022;-85
2023/08/07 09:28:30;;;;;;;2.50;1.30;;;24.90;99.90;;;;;;4955060;28;20022;-88
2023/08/07 09:30:56;;;;;;;2.45;1.30;;;25.10;99.90;;;;;;4932658;28;20378;-86
2023/08/07 09:33:26;;;;;;;1.60;1.10;;;25.40;99.90;;;;;;4943116;28;20481;-88
2023/08/07 09:35:53;;;;;;;1.70;1.27;;;25.70;99.90;;;;;;4962413;28;20049;-87
2023/08/07 09:38:22;;;;;;;1.90;1.40;;;25.90;99.90;;;;;;4950431;28;20512;-85
2023/08/07 09:40:49;;;;;;;2.85;1.45;;;26.10;99.90;;;;;;4958101;28;20030;-85
2023/08/07 09:43:22;;;;;;;2.42;1.40;;;26.40;99.90;;;;;;4954625;28;20575;-88
2023/08/07 09:45:50;;;;;;;3.03;1.53;;;26.70;99.90;;;;;;4929878;28;20023;-89
2023/08/07 09:48:23;;;;;;;2.50;1.20;;;26.90;99.90;;;;;;4944212;28;20023;-86
2023/08/07 09:50:49;;;;;;;2.15;1.30;;;27.20;99.90;;;;;;4975248;28;20053;-84
2023/08/07 09:53:15;;;;;;;1.80;1.50;;;27.40;99.90;;;;;;4960690;28;20679;-89
2023/08/07 09:55:41;;;;;;;1.47;1.30;;;27.70;99.90;;;;;;4964326;28;20293;-88
2023/08/07 09:58:11;;;;;;;1.67;1.40;;;27.90;99.90;;;;;;4965128;28;20025;-88
2023/08/07 10:00:37;;;;;;;1.50;1.10;;;27.90;99.90;;;;;;4966011;28;20026;-90
2023/08/07 10:03:04;;;;;;;3.07;1.40;;;28.00;99.90;;;;;;4958389;28;20370;-89
2023/08/07 10:05:30;;;;;;;1.80;1.60;;;28.00;99.90;;;;;;4961298;28;20259;-90
2023/08/07 10:07:57;;;;;;;1.50;1.23;;;28.20;99.90;;;;;;4947719;28;20113;-87
2023/08/07 10:10:25;;;;;;;2.65;1.42;;;28.40;99.90;;;;;;4958236;28;20392;-84
2023/08/07 10:12:52;;;;;;;2.20;1.27;;;28.50;99.90;;;;;;4972106;28;20050;-85
2023/08/07 10:15:19;;;;;;;2.22;1.42;;;28.50;99.90;;;;;;4928176;28;20452;-85
2023/08/07 10:17:45;;;;;;;1.60;1.50;;;28.60;99.90;;;;;;4968535;28;20027;-88
2023/08/07 10:20:12;;;;;;;1.73;1.30;;;28.70;99.90;;;;;;4955794;28;20033;-89
2023/08/07 10:22:39;;;;;;;1.27;1.17;;;28.80;99.90;;;;;;4986250;28;20067;-84
2023/08/07 10:25:06;;;;;;;1.73;1.23;;;28.90;99.90;;;;;;4955329;28;20388;-84
2023/08/07 10:27:37;;;;;;;1.80;1.60;;;29.00;99.90;;;;;;4980937;28;20098;-86
2023/08/07 10:30:07;;;;;;;1.60;1.30;;;29.20;99.90;;;;;;4938636;28;20046;-87
2023/08/07 10:32:33;;;;;;;2.22;1.42;;;29.40;99.90;;;;;;4980728;28;20173;-89
2023/08/07 10:35:04;;;;;;;1.87;1.40;;;29.60;99.90;;;;;;4937437;28;20046;-87
2023/08/07 10:37:39;;;;;;;1.63;1.45;;;29.70;99.90;;;;;;4961590;28;20404;-84
2023/08/07 10:40:09;;;;;;;1.52;1.42;;;29.70;99.90;;;;;;4958955;28;20019;-88
2023/08/07 10:42:59;;;;;;;1.92;1.50;;;29.80;99.90;;;;;;4950784;28;20034;-90
2023/08/07 10:45:28;;;;;;;1.30;1.20;;;29.80;99.90;;;;;;4931422;28;20046;-87
2023/08/07 10:48:01;;;;;;;1.30;1.20;;;29.90;99.90;;;;;;4952459;28;20384;-86
2023/08/07 10:50:34;;;;;;;1.27;1.17;;;29.90;99.10;;;;;;4937531;28;20239;-87
2023/08/07 10:53:04;;;;;;;1.88;1.40;;;29.80;99.90;;;;;;4963711;28;20610;-87
2023/08/07 10:55:46;;;;;;;1.48;1.38;;;29.80;99.90;;;;;;4937624;28;20759;-86
2023/08/07 10:58:40;;;;;;;1.30;1.17;;;29.80;99.70;;;;;;4948934;28;20038;-88
2023/08/07 11:01:22;;;;;;;1.53;1.20;;;29.80;99.90;;;;;;4944871;28;20097;-88
2023/08/07 11:03:59;;;;;;;1.30;1.20;;;29.90;99.90;;;;;;4980253;28;20694;-86
2023/08/07 11:06:33;;;;;;;1.40;1.30;;;30.10;99.90;;;;;;4933001;28;20068;-86
2023/08/07 11:09:03;;;;;;;1.80;1.50;;;30.30;99.90;;;;;;4948309;28;20410;-85
2023/08/07 11:11:30;;;;;;;1.50;1.30;;;30.40;99.90;;;;;;4952026;28;20376;-87
2023/08/07 11:13:55;;;;;;;1.30;1.20;;;30.50;99.90;;;;;;4948824;28;20029;-87
2023/08/07 11:16:22;;;;;;;1.92;1.45;;;30.60;99.90;;;;;;4940085;28;26573;-85
2023/08/07 11:18:49;;;;;;;1.50;1.40;;;30.60;99.90;;;;;;4947158;28;20030;-88
2023/08/07 11:21:14;;;;;;;3.75;1.40;;;30.60;99.90;;;;;;4946337;28;20297;-88
2023/08/07 11:23:41;;;;;;;1.30;1.10;;;30.40;99.90;;;;;;4942498;28;20038;-87
2023/08/07 11:26:09;;;;;;;1.60;1.30;;;30.20;99.90;;;;;;4944144;28;20041;-87
2023/08/07 11:28:35;;;;;;;1.30;1.20;;;29.90;99.80;;;;;;4941265;28;20030;-86
2023/08/07 11:31:01;;;;;;;1.67;1.17;;;29.70;99.90;;;;;;4945697;28;20080;-86
2023/08/07 11:33:28;;;;;;;2.22;1.30;;;29.50;99.90;;;;;;4938609;28;20026;-89
2023/08/07 11:35:54;;;;;;;1.60;1.15;;;28.80;98.40;;;;;;4967660;28;20722;-88
2023/08/07 11:38:39;;;;;;;1.95;1.23;;;29.10;99.90;;;;;;4934474;28;20142;-86
2023/08/07 11:41:06;;;;;;;1.63;1.20;;;29.00;99.00;;;;;;4969920;28;20038;-87
2023/08/07 11:43:36;;;;;;;1.43;1.20;;;29.10;99.90;;;;;;4953468;28;20517;-87
2023/08/07 11:46:06;;;;;;;1.70;1.17;;;29.20;99.90;;;;;;4952186;28;20436;-86
2023/08/07 11:48:34;;;;;;;1.58;1.30;;;29.30;99.90;;;;;;4930862;28;20221;-91
2023/08/07 11:51:01;;;;;;;1.20;1.10;;;29.40;99.90;;;;;;4948502;28;20058;-86
2023/08/07 11:53:32;;;;;;;1.33;1.23;;;29.30;99.90;;;;;;4967277;28;20272;-87
2023/08/07 11:55:59;;;;;;;1.27;1.10;;;29.20;99.90;;;;;;4948315;28;20069;-86
2023/08/07 11:58:26;;;;;;;1.60;1.30;;;29.10;99.90;;;;;;4975008;28;20649;-87
2023/08/07 12:00:52;;;;;;;2.40;1.20;;;28.90;99.90;;;;;;4944058;28;20396;-84
2023/08/07 12:03:31;;;;;;;1.40;1.20;;;28.70;99.90;;;;;;4945493;28;20033;-87
2023/08/07 12:05:58;;;;;;;1.90;1.20;;;28.50;99.70;;;;;;4945260;28;20046;-87
2023/08/07 12:08:25;;;;;;;1.30;1.10;;;28.40;99.90;;;;;;4934611;28;24087;-89
2023/08/07 12:10:54;;;;;;;1.42;1.20;;;28.50;99.90;;;;;;4966773;28;20348;-89
2023/08/07 12:13:25;;;;;;;1.98;1.33;;;28.60;99.90;;;;;;4944710;28;20093;-90
2023/08/07 12:15:55;;;;;;;1.27;1.10;;;28.70;99.90;;;;;;4958150;28;20033;-87
2023/08/07 12:18:22;;;;;;;1.33;1.23;;;28.70;99.90;;;;;;4931564;28;20189;-86
2023/08/07 12:20:52;;;;;;;1.20;1.00;;;28.60;99.90;;;;;;4962133;28;20473;-88
2023/08/07 12:23:21;;;;;;;1.77;1.10;;;28.40;99.90;;;;;;4966572;28;20394;-88
2023/08/07 12:25:47;;;;;;;2.15;1.25;;;28.20;99.90;;;;;;4967425;28;20069;-86
2023/08/07 12:28:14;;;;;;;1.10;0.90;;;28.00;99.90;;;;;;4977681;28;20351;-86
2023/08/07 12:30:43;;;;;;;1.30;1.20;;;27.90;99.90;;;;;;4955836;28;20436;-87
2023/08/07 12:33:09;;;;;;;2.10;1.10;;;27.80;99.90;;;;;;4948250;28;20022;-87
2023/08/07 12:35:35;;;;;;;1.15;1.05;;;27.80;99.90;;;;;;4960652;28;20041;-86
2023/08/07 12:38:04;;;;;;;2.00;1.40;;;27.80;99.90;;;;;;4977341;28;20519;-87
2023/08/07 12:40:31;;;;;;;2.23;1.40;;;27.70;99.90;;;;;;4950552;28;20244;-87
2023/08/07 12:42:57;;;;;;;1.98;1.25;;;27.70;99.90;;;;;;4964066;28;20077;-85
2023/08/07 12:45:23;;;;;;;1.65;1.27;;;27.90;99.90;;;;;;4952778;28;20570;-87
2023/08/07 12:47:49;;;;;;;2.07;1.40;;;28.30;99.90;;;;;;4948352;28;20068;-85
2023/08/07 12:50:15;;;;;;;2.20;1.20;;;28.40;99.90;;;;;;4925934;28;20440;-85